sensor_id;sensor_type;location;lat;lon;timestamp;pressure;altitude;pressure_sealevel;temperature;humidity
63395;BME280;49531;-34.520;150.798;2023-04-01T00:00:19;100601.38;;;21.18;51.60
63395;BME280;49531;-34.520;150.798;2023-04-01T00:02:46;100603.59;;;21.26;51.38
63395;BME280;49531;-34.520;150.798;2023-04-01T00:05:13;100606.31;;;21.31;51.18
63395;BME280;49531;-34.520;150.798;2023-04-01T00:07:39;100614.75;;;21.35;51.04
63395;BME280;49531;-34.520;150.798;2023-04-01T00:10:08;100616.13;;;21.37;50.93
63395;BME280;49531;-34.520;150.798;2023-04-01T00:12:36;100614.72;;;21.24;51.05
63395;BME280;49531;-34.520;150.798;2023-04-01T00:15:03;100617.72;;;21.28;51.14
63395;BME280;49531;-34.520;150.798;2023-04-01T00:17:30;100608.22;;;21.30;51.07
63395;BME280;49531;-34.520;150.798;2023-04-01T00:19:56;100607.13;;;21.32;51.23
63395;BME280;49531;-34.520;150.798;2023-04-01T00:22:24;100616.91;;;21.33;51.25
63395;BME280;49531;-34.520;150.798;2023-04-01T00:24:51;100608.50;;;21.34;51.04
63395;BME280;49531;-34.520;150.798;2023-04-01T00:27:18;100610.94;;;21.36;51.16
63395;BME280;49531;-34.520;150.798;2023-04-01T00:29:45;100611.50;;;21.38;50.73
63395;BME280;49531;-34.520;150.798;2023-04-01T00:32:12;100613.13;;;21.34;51.00
63395;BME280;49531;-34.520;150.798;2023-04-01T00:34:38;100607.97;;;21.32;51.46
63395;BME280;49531;-34.520;150.798;2023-04-01T00:37:06;100606.06;;;21.33;51.19
63395;BME280;49531;-34.520;150.798;2023-04-01T00:39:33;100614.19;;;21.27;51.85
63395;BME280;49531;-34.520;150.798;2023-04-01T00:42:01;100615.25;;;21.21;52.59
63395;BME280;49531;-34.520;150.798;2023-04-01T00:44:29;100616.88;;;21.17;52.41
63395;BME280;49531;-34.520;150.798;2023-04-01T00:46:55;100624.19;;;21.17;52.70
63395;BME280;49531;-34.520;150.798;2023-04-01T00:49:23;100623.94;;;21.18;52.10
63395;BME280;49531;-34.520;150.798;2023-04-01T00:51:52;100621.50;;;21.22;52.96
63395;BME280;49531;-34.520;150.798;2023-04-01T00:54:19;100620.09;;;21.19;52.83
63395;BME280;49531;-34.520;150.798;2023-04-01T00:56:50;100616.59;;;21.19;53.44
63395;BME280;49531;-34.520;150.798;2023-04-01T00:59:23;100620.41;;;21.18;53.45
63395;BME280;49531;-34.520;150.798;2023-04-01T01:01:50;100623.91;;;21.13;53.25
63395;BME280;49531;-34.520;150.798;2023-04-01T01:04:27;100616.88;;;21.17;52.99
63395;BME280;49531;-34.520;150.798;2023-04-01T01:06:57;100619.59;;;21.17;53.30
63395;BME280;49531;-34.520;150.798;2023-04-01T01:09:32;100619.34;;;21.24;52.66
63395;BME280;49531;-34.520;150.798;2023-04-01T01:12:07;100606.31;;;21.26;52.80
63395;BME280;49531;-34.520;150.798;2023-04-01T01:17:32;100610.91;;;21.25;52.58
63395;BME280;49531;-34.520;150.798;2023-04-01T01:20:08;100608.75;;;21.27;52.60
63395;BME280;49531;-34.520;150.798;2023-04-01T01:22:49;100599.53;;;21.28;52.16
63395;BME280;49531;-34.520;150.798;2023-04-01T01:25:26;100604.16;;;21.38;51.60
63395;BME280;49531;-34.520;150.798;2023-04-01T01:28:02;100597.38;;;21.41;52.10
63395;BME280;49531;-34.520;150.798;2023-04-01T01:30:39;100603.09;;;21.44;52.00
63395;BME280;49531;-34.520;150.798;2023-04-01T01:33:13;100601.75;;;21.47;51.87
63395;BME280;49531;-34.520;150.798;2023-04-01T01:35:46;100591.41;;;21.44;51.94
63395;BME280;49531;-34.520;150.798;2023-04-01T01:38:15;100596.59;;;21.50;51.33
63395;BME280;49531;-34.520;150.798;2023-04-01T01:40:43;100592.25;;;21.49;51.35
63395;BME280;49531;-34.520;150.798;2023-04-01T01:43:12;100594.94;;;21.49;51.71
63395;BME280;49531;-34.520;150.798;2023-04-01T01:45:41;100596.59;;;21.55;51.33
63395;BME280;49531;-34.520;150.798;2023-04-01T01:48:09;100594.69;;;21.56;51.10
63395;BME280;49531;-34.520;150.798;2023-04-01T01:50:37;100596.06;;;21.53;51.47
63395;BME280;49531;-34.520;150.798;2023-04-01T01:53:07;100593.59;;;21.52;51.02
63395;BME280;49531;-34.520;150.798;2023-04-01T01:55:35;100592.50;;;21.53;51.01
63395;BME280;49531;-34.520;150.798;2023-04-01T01:58:05;100592.25;;;21.49;51.25
63395;BME280;49531;-34.520;150.798;2023-04-01T02:00:34;100590.63;;;21.53;51.00
63395;BME280;49531;-34.520;150.798;2023-04-01T02:03:01;100589.25;;;21.56;50.93
63395;BME280;49531;-34.520;150.798;2023-04-01T02:05:28;100585.44;;;21.52;51.07
63395;BME280;49531;-34.520;150.798;2023-04-01T02:08:01;100581.38;;;21.54;51.05
63395;BME280;49531;-34.520;150.798;2023-04-01T02:10:28;100583.28;;;21.54;50.82
63395;BME280;49531;-34.520;150.798;2023-04-01T02:12:59;100572.69;;;21.52;50.70
63395;BME280;49531;-34.520;150.798;2023-04-01T02:15:27;100580.56;;;21.54;50.73
63395;BME280;49531;-34.520;150.798;2023-04-01T02:17:56;100575.13;;;21.54;50.99
63395;BME280;49531;-34.520;150.798;2023-04-01T02:20:22;100572.41;;;21.54;50.87
63395;BME280;49531;-34.520;150.798;2023-04-01T02:22:50;100580.03;;;21.57;51.24
63395;BME280;49531;-34.520;150.798;2023-04-01T02:25:19;100571.28;;;21.60;51.41
63395;BME280;49531;-34.520;150.798;2023-04-01T02:27:46;100579.47;;;21.55;51.54
63395;BME280;49531;-34.520;150.798;2023-04-01T02:30:14;100573.19;;;21.59;51.33
63395;BME280;49531;-34.520;150.798;2023-04-01T02:32:41;100573.19;;;21.59;51.13
63395;BME280;49531;-34.520;150.798;2023-04-01T02:35:08;100566.41;;;21.62;51.08
63395;BME280;49531;-34.520;150.798;2023-04-01T02:37:37;100571.03;;;21.67;50.76
63395;BME280;49531;-34.520;150.798;2023-04-01T02:40:05;100562.88;;;21.67;50.71
63395;BME280;49531;-34.520;150.798;2023-04-01T02:42:33;100565.88;;;21.65;50.83
63395;BME280;49531;-34.520;150.798;2023-04-01T02:44:59;100564.78;;;21.61;50.05
63395;BME280;49531;-34.520;150.798;2023-04-01T02:47:26;100571.28;;;21.60;49.97
63395;BME280;49531;-34.520;150.798;2023-04-01T02:49:52;100566.97;;;21.54;50.52
63395;BME280;49531;-34.520;150.798;2023-04-01T02:52:24;100571.06;;;21.56;50.49
63395;BME280;49531;-34.520;150.798;2023-04-01T02:54:50;100565.88;;;21.55;50.35
63395;BME280;49531;-34.520;150.798;2023-04-01T02:57:18;100566.41;;;21.62;50.28
63395;BME280;49531;-34.520;150.798;2023-04-01T02:59:44;100556.88;;;21.59;50.69
63395;BME280;49531;-34.520;150.798;2023-04-01T03:02:10;100565.59;;;21.61;50.78
63395;BME280;49531;-34.520;150.798;2023-04-01T03:04:37;100566.41;;;21.62;50.71
63395;BME280;49531;-34.520;150.798;2023-04-01T03:07:03;100564.53;;;21.57;51.27
63395;BME280;49531;-34.520;150.798;2023-04-01T03:09:30;100564.78;;;21.61;51.12
63395;BME280;49531;-34.520;150.798;2023-04-01T03:11:56;100570.78;;;21.58;50.59
63395;BME280;49531;-34.520;150.798;2023-04-01T03:14:23;100561.25;;;21.55;51.05
63395;BME280;49531;-34.520;150.798;2023-04-01T03:16:49;100569.41;;;21.50;50.93
63395;BME280;49531;-34.520;150.798;2023-04-01T03:19:16;100563.97;;;21.50;51.71
63395;BME280;49531;-34.520;150.798;2023-04-01T03:21:42;100558.53;;;21.50;51.29
63395;BME280;49531;-34.520;150.798;2023-04-01T03:24:08;100565.88;;;21.50;51.09
63395;BME280;49531;-34.520;150.798;2023-04-01T03:26:35;100562.63;;;21.53;51.03
63395;BME280;49531;-34.520;150.798;2023-04-01T03:29:01;100560.19;;;21.51;50.88
63395;BME280;49531;-34.520;150.798;2023-04-01T03:31:28;100557.19;;;21.53;50.83
63395;BME280;49531;-34.520;150.798;2023-04-01T03:33:54;100551.75;;;21.53;50.94
63395;BME280;49531;-34.520;150.798;2023-04-01T03:36:21;100552.28;;;21.55;50.25
63395;BME280;49531;-34.520;150.798;2023-04-01T03:38:47;100556.66;;;21.56;50.39
63395;BME280;49531;-34.520;150.798;2023-04-01T03:41:14;100549.31;;;21.51;50.56
63395;BME280;49531;-34.520;150.798;2023-04-01T03:43:41;100557.19;;;21.53;50.68
63395;BME280;49531;-34.520;150.798;2023-04-01T03:46:08;100558.53;;;21.50;50.72
63395;BME280;49531;-34.520;150.798;2023-04-01T03:48:34;100558.28;;;21.52;51.23
63395;BME280;49531;-34.520;150.798;2023-04-01T03:51:01;100562.63;;;21.53;51.03
63395;BME280;49531;-34.520;150.798;2023-04-01T03:53:27;100549.31;;;21.56;51.25
63395;BME280;49531;-34.520;150.798;2023-04-01T03:55:54;100558.28;;;21.57;51.18
63395;BME280;49531;-34.520;150.798;2023-04-01T04:00:27;100556.34;;;22.13;49.62
63395;BME280;49531;-34.520;150.798;2023-04-01T04:02:54;100560.69;;;21.69;50.75
63395;BME280;49531;-34.520;150.798;2023-04-01T04:05:23;100550.94;;;21.52;50.92
63395;BME280;49531;-34.520;150.798;2023-04-01T04:07:51;100553.38;;;21.54;51.10
63395;BME280;49531;-34.520;150.798;2023-04-01T04:10:19;100556.38;;;21.57;50.81
63395;BME280;49531;-34.520;150.798;2023-04-01T04:12:46;100553.38;;;21.59;50.79
63395;BME280;49531;-34.520;150.798;2023-04-01T04:15:16;100525.13;;;21.50;50.84
63395;BME280;49531;-34.520;150.798;2023-04-01T04:17:44;100541.94;;;21.62;51.01
63395;BME280;49531;-34.520;150.798;2023-04-01T04:20:12;100540.31;;;21.66;50.54
63395;BME280;49531;-34.520;150.798;2023-04-01T04:22:39;100546.03;;;21.64;50.68
63395;BME280;49531;-34.520;150.798;2023-04-01T04:25:07;100545.47;;;21.68;50.65
63395;BME280;49531;-34.520;150.798;2023-04-01T04:27:35;100547.94;;;21.69;50.29
63395;BME280;49531;-34.520;150.798;2023-04-01T04:30:04;100532.16;;;21.61;49.98
63395;BME280;49531;-34.520;150.798;2023-04-01T04:32:32;100520.50;;;21.55;50.28
63395;BME280;49531;-34.520;150.798;2023-04-01T04:34:59;100535.69;;;21.61;49.75
63395;BME280;49531;-34.520;150.798;2023-04-01T04:37:26;100547.38;;;21.67;49.87
63395;BME280;49531;-34.520;150.798;2023-04-01T04:39:53;100544.13;;;21.60;49.81
63395;BME280;49531;-34.520;150.798;2023-04-01T04:42:20;100545.75;;;21.66;49.44
63395;BME280;49531;-34.520;150.798;2023-04-01T04:44:47;100546.03;;;21.70;49.00
63395;BME280;49531;-34.520;150.798;2023-04-01T04:47:16;100529.19;;;21.52;48.51
63395;BME280;49531;-34.520;150.798;2023-04-01T04:49:43;100556.06;;;21.64;48.56
63395;BME280;49531;-34.520;150.798;2023-04-01T04:52:10;100550.09;;;21.67;48.82
63395;BME280;49531;-34.520;150.798;2023-04-01T04:54:37;100550.38;;;21.66;48.93
63395;BME280;49531;-34.520;150.798;2023-04-01T04:57:04;100542.22;;;21.60;48.61
63395;BME280;49531;-34.520;150.798;2023-04-01T04:59:31;100523.47;;;21.49;49.01
63395;BME280;49531;-34.520;150.798;2023-04-01T05:01:59;100551.19;;;21.61;48.59
63395;BME280;49531;-34.520;150.798;2023-04-01T05:04:26;100552.84;;;21.57;48.16
63395;BME280;49531;-34.520;150.798;2023-04-01T05:06:53;100541.41;;;21.50;48.24
63395;BME280;49531;-34.520;150.798;2023-04-01T05:09:21;100554.47;;;21.58;48.26
63395;BME280;49531;-34.520;150.798;2023-04-01T05:11:48;100558.00;;;21.53;48.73
63395;BME280;49531;-34.520;150.798;2023-04-01T05:14:16;100527.53;;;21.36;48.91
63395;BME280;49531;-34.520;150.798;2023-04-01T05:16:44;100556.63;;;21.51;49.26
63395;BME280;49531;-34.520;150.798;2023-04-01T05:19:11;100528.66;;;21.45;48.77
63395;BME280;49531;-34.520;150.798;2023-04-01T05:21:38;100551.72;;;21.63;48.76
63395;BME280;49531;-34.520;150.798;2023-04-01T05:24:08;100559.63;;;21.54;48.48
63395;BME280;49531;-34.520;150.798;2023-04-01T05:26:36;100565.88;;;21.45;48.40
63395;BME280;49531;-34.520;150.798;2023-04-01T05:29:04;100553.63;;;21.37;48.44
63395;BME280;49531;-34.520;150.798;2023-04-01T05:31:32;100557.16;;;21.33;48.04
63395;BME280;49531;-34.520;150.798;2023-04-01T05:33:59;100554.97;;;21.24;47.79
63395;BME280;49531;-34.520;150.798;2023-04-01T05:36:26;100563.38;;;21.28;47.97
63395;BME280;49531;-34.520;150.798;2023-04-01T05:38:55;100570.97;;;21.21;48.15
63395;BME280;49531;-34.520;150.798;2023-04-01T05:41:22;100553.81;;;21.00;48.43
63395;BME280;49531;-34.520;150.798;2023-04-01T05:43:49;100573.66;;;21.06;48.85
63395;BME280;49531;-34.520;150.798;2023-04-01T05:46:16;100574.44;;;21.01;48.91
63395;BME280;49531;-34.520;150.798;2023-04-01T05:48:44;100567.94;;;21.02;48.92
63395;BME280;49531;-34.520;150.798;2023-04-01T05:51:14;100580.72;;;21.07;48.67
63395;BME280;49531;-34.520;150.798;2023-04-01T05:53:42;100580.44;;;21.08;48.99
63395;BME280;49531;-34.520;150.798;2023-04-01T05:56:10;100574.19;;;21.08;49.05
63395;BME280;49531;-34.520;150.798;2023-04-01T05:58:37;100581.00;;;21.10;48.88
63395;BME280;49531;-34.520;150.798;2023-04-01T06:01:08;100557.59;;;20.94;48.47
63395;BME280;49531;-34.520;150.798;2023-04-01T06:03:36;100586.94;;;21.02;48.99
63395;BME280;49531;-34.520;150.798;2023-04-01T06:06:04;100584.78;;;21.04;48.26
63395;BME280;49531;-34.520;150.798;2023-04-01T06:08:32;100587.47;;;20.99;47.56
63395;BME280;49531;-34.520;150.798;2023-04-01T06:11:16;100583.38;;;20.96;47.17
63395;BME280;49531;-34.520;150.798;2023-04-01T06:14:20;100592.63;;;21.01;46.93
63395;BME280;49531;-34.520;150.798;2023-04-01T06:17:10;100585.28;;;20.96;47.84
63395;BME280;49531;-34.520;150.798;2023-04-01T06:19:51;100576.53;;;20.84;47.51
63395;BME280;49531;-34.520;150.798;2023-04-01T06:22:42;100588.22;;;20.84;47.34
63395;BME280;49531;-34.520;150.798;2023-04-01T06:25:27;100594.47;;;20.85;47.54
63395;BME280;49531;-34.520;150.798;2023-04-01T06:28:23;100602.88;;;20.83;47.52
63395;BME280;49531;-34.520;150.798;2023-04-01T06:31:10;100601.50;;;20.81;47.72
63395;BME280;49531;-34.520;150.798;2023-04-01T06:34:00;100586.84;;;20.72;47.62
63395;BME280;49531;-34.520;150.798;2023-04-01T06:36:59;100597.72;;;20.77;47.91
63395;BME280;49531;-34.520;150.798;2023-04-01T06:39:58;100590.38;;;20.77;47.96
63395;BME280;49531;-34.520;150.798;2023-04-01T06:45:37;100594.19;;;20.81;47.62
63395;BME280;49531;-34.520;150.798;2023-04-01T06:48:29;100591.19;;;20.73;47.62
63395;BME280;49531;-34.520;150.798;2023-04-01T06:54:20;100605.28;;;20.70;48.45
63395;BME280;49531;-34.520;150.798;2023-04-01T06:56:56;100602.81;;;20.68;48.14
63395;BME280;49531;-34.520;150.798;2023-04-01T06:59:28;100605.53;;;20.68;48.40
63395;BME280;49531;-34.520;150.798;2023-04-01T07:02:12;100598.19;;;20.63;48.20
63395;BME280;49531;-34.520;150.798;2023-04-01T07:04:49;100605.28;;;20.70;47.68
63395;BME280;49531;-34.520;150.798;2023-04-01T07:07:38;100605.25;;;20.64;47.95
63395;BME280;49531;-34.520;150.798;2023-04-01T07:10:17;100618.84;;;20.70;48.05
63395;BME280;49531;-34.520;150.798;2023-04-01T07:12:50;100628.03;;;20.63;48.27
63395;BME280;49531;-34.520;150.798;2023-04-01T07:15:30;100611.69;;;20.53;48.46
63395;BME280;49531;-34.520;150.798;2023-04-01T07:18:09;100627.47;;;20.56;48.61
63395;BME280;49531;-34.520;150.798;2023-04-01T07:20:39;100616.53;;;20.46;48.33
63395;BME280;49531;-34.520;150.798;2023-04-01T07:23:23;100620.38;;;20.55;48.47
63395;BME280;49531;-34.520;150.798;2023-04-01T07:25:55;100638.03;;;20.58;48.61
63395;BME280;49531;-34.520;150.798;2023-04-01T07:28:26;100636.75;;;20.66;48.64
63395;BME280;49531;-34.520;150.798;2023-04-01T07:31:15;100631.06;;;20.72;48.54
63395;BME280;49531;-34.520;150.798;2023-04-01T07:34:05;100611.75;;;20.63;48.42
63395;BME280;49531;-34.520;150.798;2023-04-01T07:36:45;100629.75;;;20.85;48.42
63395;BME280;49531;-34.520;150.798;2023-04-01T07:39:40;100637.91;;;20.85;48.38
63395;BME280;49531;-34.520;150.798;2023-04-01T07:42:31;100636.28;;;20.89;48.35
63395;BME280;49531;-34.520;150.798;2023-04-01T07:45:27;100635.78;;;20.92;48.38
63395;BME280;49531;-34.520;150.798;2023-04-01T07:48:15;100634.97;;;20.96;48.31
63395;BME280;49531;-34.520;150.798;2023-04-01T07:51:10;100642.28;;;20.91;48.51
63395;BME280;49531;-34.520;150.798;2023-04-01T07:53:54;100640.34;;;20.86;48.69
63395;BME280;49531;-34.520;150.798;2023-04-01T07:56:44;100646.56;;;20.77;48.81
63395;BME280;49531;-34.520;150.798;2023-04-01T07:59:38;100637.28;;;20.68;49.01
63395;BME280;49531;-34.520;150.798;2023-04-01T08:02:25;100637.84;;;20.70;49.00
63395;BME280;49531;-34.520;150.798;2023-04-01T08:05:04;100651.47;;;20.85;48.62
63395;BME280;49531;-34.520;150.798;2023-04-01T08:08:01;100644.16;;;20.85;48.51
63395;BME280;49531;-34.520;150.798;2023-04-01T08:10:55;100649.38;;;20.97;48.56
63395;BME280;49531;-34.520;150.798;2023-04-01T08:13:40;100645.84;;;20.96;48.24
63395;BME280;49531;-34.520;150.798;2023-04-01T08:16:33;100638.22;;;20.93;48.44
63395;BME280;49531;-34.520;150.798;2023-04-01T08:22:01;100651.56;;;21.00;48.58
63395;BME280;49531;-34.520;150.798;2023-04-01T08:24:38;100650.97;;;20.93;48.41
63395;BME280;49531;-34.520;150.798;2023-04-01T08:27:17;100660.78;;;20.99;48.57
63395;BME280;49531;-34.520;150.798;2023-04-01T08:29:55;100665.41;;;20.98;48.49
63395;BME280;49531;-34.520;150.798;2023-04-01T08:32:28;100638.44;;;20.82;48.64
63395;BME280;49531;-34.520;150.798;2023-04-01T08:35:09;100674.34;;;20.99;48.57
63395;BME280;49531;-34.520;150.798;2023-04-01T08:37:43;100678.72;;;21.00;48.53
63395;BME280;49531;-34.520;150.798;2023-04-01T08:43:38;100684.13;;;21.00;48.67
63395;BME280;49531;-34.520;150.798;2023-04-01T08:46:32;100686.31;;;20.98;48.81
63395;BME280;49531;-34.520;150.798;2023-04-01T08:49:16;100687.41;;;21.02;48.65
63395;BME280;49531;-34.520;150.798;2023-04-01T08:51:58;100687.38;;;20.97;48.66
63395;BME280;49531;-34.520;150.798;2023-04-01T08:55:01;100696.38;;;21.03;48.66
63395;BME280;49531;-34.520;150.798;2023-04-01T08:57:51;100693.66;;;21.03;48.86
63395;BME280;49531;-34.520;150.798;2023-04-01T09:00:31;100705.34;;;21.03;48.68
63395;BME280;49531;-34.520;150.798;2023-04-01T09:03:17;100707.25;;;21.03;48.72
63395;BME280;49531;-34.520;150.798;2023-04-01T09:06:12;100707.78;;;21.05;48.70
63395;BME280;49531;-34.520;150.798;2023-04-01T09:09:09;100698.50;;;20.95;48.78
63395;BME280;49531;-34.520;150.798;2023-04-01T09:12:15;100704.78;;;21.01;48.79
63395;BME280;49531;-34.520;150.798;2023-04-01T09:21:09;100734.66;;;21.01;48.97
63395;BME280;49531;-34.520;150.798;2023-04-01T09:24:07;100743.34;;;21.03;48.90
63395;BME280;49531;-34.520;150.798;2023-04-01T09:26:53;100746.34;;;21.02;48.97
63395;BME280;49531;-34.520;150.798;2023-04-01T09:30:04;100745.00;;;21.04;49.00
63395;BME280;49531;-34.520;150.798;2023-04-01T09:38:29;100765.16;;;21.13;49.22
63395;BME280;49531;-34.520;150.798;2023-04-01T09:41:07;100761.53;;;21.03;49.03
63395;BME280;49531;-34.520;150.798;2023-04-01T09:44:02;100765.13;;;21.08;49.09
63395;BME280;49531;-34.520;150.798;2023-04-01T09:47:00;100770.59;;;21.13;49.20
63395;BME280;49531;-34.520;150.798;2023-04-01T09:52:55;100784.13;;;21.08;49.33
63395;BME280;49531;-34.520;150.798;2023-04-01T10:01:58;100792.47;;;20.96;49.45
63395;BME280;49531;-34.520;150.798;2023-04-01T10:04:54;100796.06;;;21.07;49.63
63395;BME280;49531;-34.520;150.798;2023-04-01T10:07:58;100809.66;;;21.07;49.51
63395;BME280;49531;-34.520;150.798;2023-04-01T10:10:55;100811.22;;;20.98;49.72
63395;BME280;49531;-34.520;150.798;2023-04-01T10:13:49;100811.50;;;21.02;49.71
63395;BME280;49531;-34.520;150.798;2023-04-01T10:16:40;100823.19;;;21.02;49.83
63395;BME280;49531;-34.520;150.798;2023-04-01T10:19:40;100831.38;;;21.07;49.82
63395;BME280;49531;-34.520;150.798;2023-04-01T10:22:33;100830.53;;;21.02;49.85
63395;BME280;49531;-34.520;150.798;2023-04-01T10:25:25;100812.56;;;20.95;49.80
63395;BME280;49531;-34.520;150.798;2023-04-01T10:28:26;100819.13;;;21.05;49.78
63395;BME280;49531;-34.520;150.798;2023-04-01T10:31:16;100815.59;;;21.04;49.82
63395;BME280;49531;-34.520;150.798;2023-04-01T10:34:49;100816.09;;;20.96;50.09
63395;BME280;49531;-34.520;150.798;2023-04-01T10:36:53;100822.41;;;21.07;49.94
63395;BME280;49531;-34.520;150.798;2023-04-01T10:39:54;100829.22;;;21.09;50.11
63395;BME280;49531;-34.520;150.798;2023-04-01T10:42:42;100810.22;;;21.09;50.09
63395;BME280;49531;-34.520;150.798;2023-04-01T10:45:57;100816.75;;;21.13;50.31
63395;BME280;49531;-34.520;150.798;2023-04-01T10:51:36;100839.56;;;21.12;50.68
63395;BME280;49531;-34.520;150.798;2023-04-01T10:57:24;100815.13;;;21.12;51.03
63395;BME280;49531;-34.520;150.798;2023-04-01T11:00:26;100824.09;;;21.13;51.19
63395;BME280;49531;-34.520;150.798;2023-04-01T11:03:21;100827.91;;;21.17;50.97
63395;BME280;49531;-34.520;150.798;2023-04-01T11:06:30;100831.97;;;21.14;50.97
63395;BME280;49531;-34.520;150.798;2023-04-01T11:12:37;100809.34;;;21.04;51.09
63395;BME280;49531;-34.520;150.798;2023-04-01T11:15:18;100837.09;;;21.11;51.18
63395;BME280;49531;-34.520;150.798;2023-04-01T11:18:24;100844.44;;;21.10;51.09
63395;BME280;49531;-34.520;150.798;2023-04-01T11:24:17;100845.56;;;21.14;51.10
63395;BME280;49531;-34.520;150.798;2023-04-01T11:27:20;100849.91;;;21.15;51.17
63395;BME280;49531;-34.520;150.798;2023-04-01T11:30:12;100850.44;;;21.12;51.11
63395;BME280;49531;-34.520;150.798;2023-04-01T11:32:54;100848.28;;;21.19;50.91
63395;BME280;49531;-34.520;150.798;2023-04-01T11:35:48;100817.72;;;20.97;51.09
63395;BME280;49531;-34.520;150.798;2023-04-01T11:38:36;100857.25;;;21.20;51.04
63395;BME280;49531;-34.520;150.798;2023-04-01T11:41:29;100839.31;;;21.14;50.77
63395;BME280;49531;-34.520;150.798;2023-04-01T11:44:17;100856.16;;;21.16;51.08
63395;BME280;49531;-34.520;150.798;2023-04-01T11:47:17;100858.06;;;21.15;51.71
63395;BME280;49531;-34.520;150.798;2023-04-01T11:50:08;100854.44;;;21.05;52.04
63395;BME280;49531;-34.520;150.798;2023-04-01T11:52:55;100858.22;;;21.04;51.89
63395;BME280;49531;-34.520;150.798;2023-04-01T11:55:38;100851.16;;;21.03;51.28
63395;BME280;49531;-34.520;150.798;2023-04-01T12:01:20;100846.78;;;20.96;51.37
63395;BME280;49531;-34.520;150.798;2023-04-01T12:04:23;100853.59;;;20.99;51.75
63395;BME280;49531;-34.520;150.798;2023-04-01T12:07:15;100859.06;;;21.04;51.89
63395;BME280;49531;-34.520;150.798;2023-04-01T12:09:53;100859.34;;;21.08;51.69
63395;BME280;49531;-34.520;150.798;2023-04-01T12:12:42;100860.16;;;21.08;51.79
63395;BME280;49531;-34.520;150.798;2023-04-01T12:15:26;100849.22;;;20.98;51.70
63395;BME280;49531;-34.520;150.798;2023-04-01T12:18:09;100860.38;;;21.02;51.99
63395;BME280;49531;-34.520;150.798;2023-04-01T12:20:51;100866.38;;;21.04;51.96
63395;BME280;49531;-34.520;150.798;2023-04-01T12:23:41;100864.28;;;21.11;52.02
63395;BME280;49531;-34.520;150.798;2023-04-01T12:29:49;100841.63;;;21.00;52.06
63395;BME280;49531;-34.520;150.798;2023-04-01T12:32:45;100859.69;;;21.16;51.93
63395;BME280;49531;-34.520;150.798;2023-04-01T12:35:23;100858.63;;;21.17;51.82
63395;BME280;49531;-34.520;150.798;2023-04-01T12:38:10;100853.69;;;21.14;51.96
63395;BME280;49531;-34.520;150.798;2023-04-01T12:43:51;100851.16;;;21.03;51.99
63395;BME280;49531;-34.520;150.798;2023-04-01T12:46:35;100869.47;;;21.17;52.01
63395;BME280;49531;-34.520;150.798;2023-04-01T12:49:25;100874.31;;;21.10;52.27
63395;BME280;49531;-34.520;150.798;2023-04-01T12:52:09;100879.75;;;21.10;52.30
63395;BME280;49531;-34.520;150.798;2023-04-01T12:54:59;100871.84;;;21.09;52.45
63395;BME280;49531;-34.520;150.798;2023-04-01T12:57:46;100879.75;;;21.10;52.44
63395;BME280;49531;-34.520;150.798;2023-04-01T13:00:39;100869.09;;;21.04;52.60
63395;BME280;49531;-34.520;150.798;2023-04-01T13:03:36;100872.69;;;21.09;52.74
63395;BME280;49531;-34.520;150.798;2023-04-01T13:09:34;100869.97;;;21.09;52.89
63395;BME280;49531;-34.520;150.798;2023-04-01T13:12:21;100864.78;;;21.08;53.03
63395;BME280;49531;-34.520;150.798;2023-04-01T13:18:02;100883.88;;;21.18;52.95
63395;BME280;49531;-34.520;150.798;2023-04-01T13:20:43;100882.50;;;21.15;53.41
63395;BME280;49531;-34.520;150.798;2023-04-01T13:23:36;100876.47;;;21.08;53.45
63395;BME280;49531;-34.520;150.798;2023-04-01T13:26:22;100882.50;;;21.15;53.48
63395;BME280;49531;-34.520;150.798;2023-04-01T13:29:11;100880.88;;;21.14;53.46
63395;BME280;49531;-34.520;150.798;2023-04-01T13:31:59;100882.19;;;21.12;53.33
63395;BME280;49531;-34.520;150.798;2023-04-01T13:34:48;100884.13;;;21.16;53.51
63395;BME280;49531;-34.520;150.798;2023-04-01T13:37:33;100873.78;;;21.13;53.35
63395;BME280;49531;-34.520;150.798;2023-04-01T13:43:21;100880.88;;;21.19;53.48
63395;BME280;49531;-34.520;150.798;2023-04-01T13:46:19;100878.72;;;21.16;53.55
63395;BME280;49531;-34.520;150.798;2023-04-01T13:49:04;100875.22;;;21.21;53.38
63395;BME280;49531;-34.520;150.798;2023-04-01T13:51:52;100872.19;;;21.17;53.59
63395;BME280;49531;-34.520;150.798;2023-04-01T13:54:41;100870.00;;;21.19;53.41
63395;BME280;49531;-34.520;150.798;2023-04-01T13:57:43;100855.84;;;21.12;53.47
63395;BME280;49531;-34.520;150.798;2023-04-01T14:00:32;100862.94;;;21.13;53.58
63395;BME280;49531;-34.520;150.798;2023-04-01T14:03:18;100868.09;;;21.20;53.54
63395;BME280;49531;-34.520;150.798;2023-04-01T14:09:04;100859.13;;;21.14;53.56
63395;BME280;49531;-34.520;150.798;2023-04-01T14:11:54;100858.28;;;21.09;53.62
63395;BME280;49531;-34.520;150.798;2023-04-01T14:14:44;100855.56;;;21.09;53.52
63395;BME280;49531;-34.520;150.798;2023-04-01T14:20:33;100855.84;;;21.12;53.65
63395;BME280;49531;-34.520;150.798;2023-04-01T14:23:25;100852.31;;;21.12;53.60
63395;BME280;49531;-34.520;150.798;2023-04-01T14:26:21;100854.22;;;21.11;53.55
63395;BME280;49531;-34.520;150.798;2023-04-01T14:29:16;100857.50;;;21.13;53.50
63395;BME280;49531;-34.520;150.798;2023-04-01T14:32:06;100845.00;;;21.12;53.44